Terminal Aerodrome Forecast
Issued by NWS Dodge City, KS

Home | Current Version | Previous Version | Text Only | Print | Product List | Glossary On
Versions: 1 2 3 4 5 6 7 8 9 10 11 12 13 14 15 16 17 18 19 20 21 22 23 24 25 26 27 28 29 30 31 32 33 34
000
FTUS43 KDDC 282320
TAFDDC
TAF
KDDC 282320Z 2900/2924 14015G25KT P6SM VCTS SCT040CB
      TEMPO 2900/2901 4SM -TSRA OVC040CB
     FM290200 15009KT P6SM BKN100
     FM290900 16005KT P6SM BKN100
      TEMPO 2909/2912 4SM -SHRA OVC040=

USA.gov is the U.S. government's official web portal to all federal, state and local government web resources and services.